Time;durP1;ratioP1;P1;durP2;ratioP2;P2;SDS_P1;SDS_P2;PMS_P1;PMS_P2;Temp;Humidity;BMP_temperature;BMP_pressure;BME280_temperature;BME280_humidity;BME280_pressure;Samples;Min_cycle;Max_cycle;Signal;HPM_P1;HPM_P2
2023/12/31 00:01:18;;;;;;;;;;;;;;;;;;5008954;28;20341;-50
2023/12/31 00:03:43;;;;;;;;;;;;;;;;;;5008901;28;19913;-50
2023/12/31 00:06:09;;;;;;;;;;;;;;;;;;5010445;28;20329;-50
2023/12/31 00:08:35;;;;;;;;;;;;;;;;;;5009211;28;19932;-50
2023/12/31 00:11:02;;;;;;;;;;;;;;;;;;5009278;28;19952;-49
2023/12/31 00:13:28;;;;;;;;;;;;;;;;;;5008580;28;19914;-50
2023/12/31 00:15:54;;;;;;;;;;;;;;;;;;5008727;28;19971;-49
2023/12/31 00:18:19;;;;;;;;;;;;;;;;;;5009155;28;20292;-50
2023/12/31 00:20:46;;;;;;;;;;;;;;;;;;5008743;28;19953;-50
2023/12/31 00:23:13;;;;;;;;;;;;;;;;;;5008799;28;20384;-50
2023/12/31 00:25:39;;;;;;;;;;;;;;;;;;5009045;28;20375;-50
2023/12/31 00:28:05;;;;;;;;;;;;;;;;;;5009113;28;20004;-50
2023/12/31 00:30:31;;;;;;;;;;;;;;;;;;5008608;28;20349;-50
2023/12/31 00:32:57;;;;;;;;;;;;;;;;;;5009371;28;19901;-50
2023/12/31 00:35:23;;;;;;;;;;;;;;;;;;5008410;28;19956;-50
2023/12/31 00:37:49;;;;;;;;;;;;;;;;;;5008671;28;20289;-49
2023/12/31 00:40:15;;;;;;;;;;;;;;;;;;5008549;28;19913;-50
2023/12/31 00:42:41;;;;;;;;;;;;;;;;;;5008531;28;20472;-50
2023/12/31 00:45:08;;;;;;;;;;;;;;;;;;5008926;28;19988;-50
2023/12/31 00:47:33;;;;;;;;;;;;;;;;;;5008701;28;19964;-50
2023/12/31 00:50:00;;;;;;;;;;;;;;;;;;5008212;28;19909;-50
2023/12/31 00:52:26;;;;;;;;;;;;;;;;;;5008214;28;19913;-50
2023/12/31 00:54:52;;;;;;;;;;;;;;;;;;5008571;28;20004;-50
2023/12/31 00:57:18;;;;;;;;;;;;;;;;;;5008842;28;19909;-49
2023/12/31 00:59:44;;;;;;;;;;;;;;;;;;5008012;28;19992;-50
2023/12/31 01:02:10;;;;;;;;;;;;;;;;;;5008201;28;19924;-50
2023/12/31 01:04:36;;;;;;;;;;;;;;;;;;5008186;28;20402;-50
2023/12/31 01:07:02;;;;;;;;;;;;;;;;;;5008135;28;19983;-50
2023/12/31 01:09:27;;;;;;;;;;;;;;;;;;5008113;28;19913;-50
2023/12/31 01:11:53;;;;;;;;;;;;;;;;;;5008376;28;19912;-50
2023/12/31 01:14:19;;;;;;;;;;;;;;;;;;5008211;28;19963;-50
2023/12/31 01:16:45;;;;;;;;;;;;;;;;;;5007996;28;19925;-50
2023/12/31 01:19:11;;;;;;;;;;;;;;;;;;5007971;28;19983;-50
2023/12/31 01:21:37;;;;;;;;;;;;;;;;;;5007702;28;19912;-51
2023/12/31 01:24:03;;;;;;;;;;;;;;;;;;5007514;28;19948;-50
2023/12/31 01:26:29;;;;;;;;;;;;;;;;;;5007659;28;20004;-51
2023/12/31 01:28:55;;;;;;;;;;;;;;;;;;5007554;28;20558;-51
2023/12/31 01:31:21;;;;;;;;;;;;;;;;;;5007349;28;19920;-51
2023/12/31 01:33:47;;;;;;;;;;;;;;;;;;5007705;28;20353;-51
2023/12/31 01:36:13;;;;;;;;;;;;;;;;;;5008186;28;19905;-51
2023/12/31 01:38:39;;;;;;;;;;;;;;;;;;5007622;28;20281;-51
2023/12/31 01:41:07;;;;;;;;;;;;;;;;;;5007813;28;19991;-51
2023/12/31 01:43:33;;;;;;;;;;;;;;;;;;5007580;28;19909;-51
2023/12/31 01:45:59;;;;;;;;;;;;;;;;;;5007284;28;20026;-51
2023/12/31 01:48:24;;;;;;;;;;;;;;;;;;5007634;28;19909;-51
2023/12/31 01:50:50;;;;;;;;;;;;;;;;;;5007299;28;20016;-51
2023/12/31 01:53:16;;;;;;;;;;;;;;;;;;5007179;28;19914;-51
2023/12/31 01:55:42;;;;;;;;;;;;;;;;;;5007301;28;20304;-51
2023/12/31 01:58:09;;;;;;;;;;;;;;;;;;5007729;28;19960;-51
2023/12/31 02:00:35;;;;;;;;;;;;;;;;;;4986832;28;19914;-56
2023/12/31 02:03:02;;;;;;;;;;;;;;;;;;4981878;28;19914;-55
2023/12/31 02:05:28;;;;;;;;;;;;;;;;;;4978672;28;20012;-55
2023/12/31 02:07:54;;;;;;;;;;;;;;;;;;4985405;28;20032;-55
2023/12/31 02:10:19;;;;;;;;;;;;;;;;;;4978305;28;19914;-55
2023/12/31 02:12:45;;;;;;;;;;;;;;;;;;4982604;28;19977;-54
2023/12/31 02:15:11;;;;;;;;;;;;;;;;;;4979826;28;19960;-55
2023/12/31 02:17:37;;;;;;;;;;;;;;;;;;4981789;28;20005;-55
2023/12/31 02:20:04;;;;;;;;;;;;;;;;;;4983451;28;19941;-55
2023/12/31 02:22:30;;;;;;;;;;;;;;;;;;4980514;28;19918;-55
2023/12/31 02:24:56;;;;;;;;;;;;;;;;;;4976551;28;19980;-55
2023/12/31 02:27:21;;;;;;;;;;;;;;;;;;4981989;28;19917;-55
2023/12/31 02:29:47;;;;;;;;;;;;;;;;;;4978732;28;19921;-55
2023/12/31 02:32:13;;;;;;;;;;;;;;;;;;4986541;28;20174;-55
2023/12/31 02:34:44;;;;;;;;;;;;;;;;;;4983409;28;20343;-55
2023/12/31 02:37:10;;;;;;;;;;;;;;;;;;4991201;28;19929;-55
2023/12/31 02:39:36;;;;;;;;;;;;;;;;;;4980544;28;20180;-55
2023/12/31 02:42:02;;;;;;;;;;;;;;;;;;4992500;28;20380;-55
2023/12/31 02:44:28;;;;;;;;;;;;;;;;;;4983791;28;19914;-55
2023/12/31 02:46:53;;;;;;;;;;;;;;;;;;4974700;28;19996;-55
2023/12/31 02:49:19;;;;;;;;;;;;;;;;;;4986627;28;20288;-55
2023/12/31 02:51:45;;;;;;;;;;;;;;;;;;4984632;28;20689;-55
2023/12/31 02:54:11;;;;;;;;;;;;;;;;;;4981822;28;20097;-55
2023/12/31 02:56:37;;;;;;;;;;;;;;;;;;4985235;28;19917;-55
2023/12/31 02:59:03;;;;;;;;;;;;;;;;;;4984258;28;20300;-55
2023/12/31 03:01:29;;;;;;;;;;;;;;;;;;4983543;28;19970;-55
2023/12/31 03:03:54;;;;;;;;;;;;;;;;;;4980859;28;20020;-55
2023/12/31 03:06:20;;;;;;;;;;;;;;;;;;4984481;28;19925;-56
2023/12/31 03:08:46;;;;;;;;;;;;;;;;;;4981531;28;20376;-55
2023/12/31 03:11:12;;;;;;;;;;;;;;;;;;4984037;28;19923;-55
2023/12/31 03:13:38;;;;;;;;;;;;;;;;;;4982645;28;19945;-55
2023/12/31 03:16:04;;;;;;;;;;;;;;;;;;4984639;28;19944;-55
2023/12/31 03:18:30;;;;;;;;;;;;;;;;;;4980492;28;19932;-55
2023/12/31 03:20:56;;;;;;;;;;;;;;;;;;4983076;28;19914;-55
2023/12/31 03:23:22;;;;;;;;;;;;;;;;;;4983063;28;20017;-55
2023/12/31 03:25:48;;;;;;;;;;;;;;;;;;4977945;28;20299;-55
2023/12/31 03:28:14;;;;;;;;;;;;;;;;;;4989823;28;19960;-55
2023/12/31 03:30:39;;;;;;;;;;;;;;;;;;4988682;28;19918;-55
2023/12/31 03:33:05;;;;;;;;;;;;;;;;;;4993952;28;20356;-55
2023/12/31 03:35:31;;;;;;;;;;;;;;;;;;4986361;28;19991;-55
2023/12/31 03:37:57;;;;;;;;;;;;;;;;;;4985281;28;19968;-55
2023/12/31 03:40:24;;;;;;;;;;;;;;;;;;4981658;28;19913;-55
2023/12/31 03:42:49;;;;;;;;;;;;;;;;;;4990760;28;19925;-55
2023/12/31 03:45:15;;;;;;;;;;;;;;;;;;4987415;28;19936;-55
2023/12/31 03:47:41;;;;;;;;;;;;;;;;;;4979881;28;19922;-55
2023/12/31 03:50:07;;;;;;;;;;;;;;;;;;4983561;28;20248;-55
2023/12/31 03:52:33;;;;;;;;;;;;;;;;;;4984179;28;19913;-55
2023/12/31 03:54:59;;;;;;;;;;;;;;;;;;4974570;28;19920;-55
2023/12/31 03:57:25;;;;;;;;;;;;;;;;;;4991537;28;19925;-55
2023/12/31 03:59:50;;;;;;;;;;;;;;;;;;4990592;28;19914;-55
2023/12/31 04:02:16;;;;;;;;;;;;;;;;;;4986421;28;19992;-55
2023/12/31 04:04:42;;;;;;;;;;;;;;;;;;4987700;28;19930;-55
2023/12/31 04:07:09;;;;;;;;;;;;;;;;;;4986570;28;19928;-55
2023/12/31 04:09:35;;;;;;;;;;;;;;;;;;4982019;28;19943;-55
2023/12/31 04:12:01;;;;;;;;;;;;;;;;;;4986704;28;19918;-55
2023/12/31 04:14:27;;;;;;;;;;;;;;;;;;4982153;28;19918;-55
2023/12/31 04:16:53;;;;;;;;;;;;;;;;;;4979489;28;19925;-55
2023/12/31 04:19:19;;;;;;;;;;;;;;;;;;4983517;28;20981;-55
2023/12/31 04:21:45;;;;;;;;;;;;;;;;;;4984835;28;20000;-55
2023/12/31 04:24:10;;;;;;;;;;;;;;;;;;4980629;28;19932;-55
2023/12/31 04:26:36;;;;;;;;;;;;;;;;;;4978261;28;19920;-55
2023/12/31 04:29:02;;;;;;;;;;;;;;;;;;4990679;28;19928;-55
2023/12/31 04:31:28;;;;;;;;;;;;;;;;;;4986801;28;20381;-55
2023/12/31 04:33:54;;;;;;;;;;;;;;;;;;4979211;28;19968;-55
2023/12/31 04:36:20;;;;;;;;;;;;;;;;;;4984375;28;19924;-55
2023/12/31 04:38:46;;;;;;;;;;;;;;;;;;4983313;28;19936;-55
2023/12/31 04:41:11;;;;;;;;;;;;;;;;;;4977218;28;19997;-55
2023/12/31 04:43:37;;;;;;;;;;;;;;;;;;4980421;28;19925;-55
2023/12/31 04:46:03;;;;;;;;;;;;;;;;;;4984327;28;20034;-55
2023/12/31 04:48:29;;;;;;;;;;;;;;;;;;4982242;28;20308;-55
2023/12/31 04:50:55;;;;;;;;;;;;;;;;;;4984039;28;20656;-55
2023/12/31 04:53:22;;;;;;;;;;;;;;;;;;4983599;28;19944;-55
2023/12/31 04:55:48;;;;;;;;;;;;;;;;;;4983435;28;19922;-55
2023/12/31 04:58:14;;;;;;;;;;;;;;;;;;4984181;28;19929;-55
2023/12/31 05:00:41;;;;;;;;;;;;;;;;;;4977925;28;19975;-55
2023/12/31 05:03:07;;;;;;;;;;;;;;;;;;4986659;28;20901;-55
2023/12/31 05:05:33;;;;;;;;;;;;;;;;;;4976738;28;20419;-55
2023/12/31 05:07:58;;;;;;;;;;;;;;;;;;4986788;28;20186;-55
2023/12/31 05:10:24;;;;;;;;;;;;;;;;;;4984717;28;20039;-55
2023/12/31 05:12:50;;;;;;;;;;;;;;;;;;4981541;28;19983;-55
2023/12/31 05:15:16;;;;;;;;;;;;;;;;;;4980983;28;19916;-55
2023/12/31 05:17:42;;;;;;;;;;;;;;;;;;4981700;28;20546;-55
2023/12/31 05:20:08;;;;;;;;;;;;;;;;;;4984035;28;19940;-55
2023/12/31 05:22:34;;;;;;;;;;;;;;;;;;4984351;28;19921;-55
2023/12/31 05:25:00;;;;;;;;;;;;;;;;;;4981541;28;20099;-55
2023/12/31 05:27:25;;;;;;;;;;;;;;;;;;4986241;28;19975;-55
2023/12/31 05:29:51;;;;;;;;;;;;;;;;;;4985272;28;19933;-53
2023/12/31 05:32:17;;;;;;;;;;;;;;;;;;4981425;28;19918;-53
2023/12/31 05:34:43;;;;;;;;;;;;;;;;;;4985179;28;19917;-54
2023/12/31 05:37:09;;;;;;;;;;;;;;;;;;4985505;28;20450;-53
2023/12/31 05:39:35;;;;;;;;;;;;;;;;;;4976995;28;19917;-54
2023/12/31 05:42:01;;;;;;;;;;;;;;;;;;4985570;28;19909;-53
2023/12/31 05:44:26;;;;;;;;;;;;;;;;;;4980889;28;19921;-54
2023/12/31 05:46:52;;;;;;;;;;;;;;;;;;4984810;28;20412;-54
2023/12/31 05:49:18;;;;;;;;;;;;;;;;;;4988128;28;20100;-54
2023/12/31 05:51:44;;;;;;;;;;;;;;;;;;4974056;28;19914;-53
2023/12/31 05:54:10;;;;;;;;;;;;;;;;;;4976146;28;19910;-53
2023/12/31 05:56:36;;;;;;;;;;;;;;;;;;4980772;28;19913;-54
2023/12/31 05:59:02;;;;;;;;;;;;;;;;;;4964997;28;19948;-53
2023/12/31 06:01:27;;;;;;;;;;;;;;;;;;4984639;28;19918;-54
2023/12/31 06:03:56;;;;;;;;;;;;;;;;;;4983104;28;19925;-53
2023/12/31 06:06:21;;;;;;;;;;;;;;;;;;4981075;28;20076;-54
2023/12/31 06:08:47;;;;;;;;;;;;;;;;;;4986253;28;19917;-53
2023/12/31 06:11:13;;;;;;;;;;;;;;;;;;4977214;28;21073;-53
2023/12/31 06:13:39;;;;;;;;;;;;;;;;;;4985603;28;19929;-54
2023/12/31 06:16:05;;;;;;;;;;;;;;;;;;4985196;28;19914;-53
2023/12/31 06:18:31;;;;;;;;;;;;;;;;;;4987818;28;20085;-54
2023/12/31 06:20:57;;;;;;;;;;;;;;;;;;4982474;28;19924;-53
2023/12/31 06:23:25;;;;;;;;;;;;;;;;;;4983336;28;20273;-54
2023/12/31 06:25:51;;;;;;;;;;;;;;;;;;4981653;28;19922;-54
2023/12/31 06:28:17;;;;;;;;;;;;;;;;;;4984152;28;19928;-54
2023/12/31 06:30:43;;;;;;;;;;;;;;;;;;4977867;28;20281;-53
2023/12/31 06:33:09;;;;;;;;;;;;;;;;;;4986426;28;19910;-53
2023/12/31 06:35:35;;;;;;;;;;;;;;;;;;4982455;28;19922;-53
2023/12/31 06:38:01;;;;;;;;;;;;;;;;;;4989129;28;20032;-53
2023/12/31 06:40:26;;;;;;;;;;;;;;;;;;4982195;28;20269;-53
2023/12/31 06:42:52;;;;;;;;;;;;;;;;;;4983624;28;19920;-54
2023/12/31 06:45:18;;;;;;;;;;;;;;;;;;4982132;28;19933;-53
2023/12/31 06:47:44;;;;;;;;;;;;;;;;;;4987420;28;19913;-53
2023/12/31 06:50:11;;;;;;;;;;;;;;;;;;4981877;28;19973;-53
2023/12/31 06:52:37;;;;;;;;;;;;;;;;;;4983997;28;19967;-54
2023/12/31 06:55:03;;;;;;;;;;;;;;;;;;4977382;28;20459;-53
2023/12/31 06:57:29;;;;;;;;;;;;;;;;;;4984190;28;19917;-53
2023/12/31 06:59:54;;;;;;;;;;;;;;;;;;4983873;28;19910;-53
2023/12/31 07:02:20;;;;;;;;;;;;;;;;;;4983095;28;21572;-53
2023/12/31 07:04:46;;;;;;;;;;;;;;;;;;4982447;28;19917;-54
2023/12/31 07:07:12;;;;;;;;;;;;;;;;;;4985082;28;20000;-53
2023/12/31 07:09:38;;;;;;;;;;;;;;;;;;4978775;28;19913;-53
2023/12/31 07:12:04;;;;;;;;;;;;;;;;;;4981893;28;20106;-53
2023/12/31 07:14:30;;;;;;;;;;;;;;;;;;4993694;28;19924;-53
2023/12/31 07:16:56;;;;;;;;;;;;;;;;;;4984183;28;20305;-53
2023/12/31 07:19:21;;;;;;;;;;;;;;;;;;4985714;28;19925;-53
2023/12/31 07:21:47;;;;;;;;;;;;;;;;;;4979817;28;19941;-53
2023/12/31 07:24:13;;;;;;;;;;;;;;;;;;4989485;28;20446;-53
2023/12/31 07:26:39;;;;;;;;;;;;;;;;;;4979355;28;20461;-52
2023/12/31 07:29:05;;;;;;;;;;;;;;;;;;4981141;28;19964;-53
2023/12/31 07:31:35;;;;;;;;;;;;;;;;;;4979843;28;19922;-53
2023/12/31 07:34:00;;;;;;;;;;;;;;;;;;4981706;28;20000;-53
2023/12/31 07:36:26;;;;;;;;;;;;;;;;;;4982016;28;20056;-53
2023/12/31 07:38:52;;;;;;;;;;;;;;;;;;4988103;28;19976;-53
2023/12/31 07:41:19;;;;;;;;;;;;;;;;;;4984413;28;20008;-53
2023/12/31 07:43:45;;;;;;;;;;;;;;;;;;4985652;28;20009;-53
2023/12/31 07:46:11;;;;;;;;;;;;;;;;;;4984960;28;20528;-54
2023/12/31 07:48:37;;;;;;;;;;;;;;;;;;4985502;28;19933;-54
2023/12/31 07:51:03;;;;;;;;;;;;;;;;;;4984754;28;20277;-54
2023/12/31 07:53:29;;;;;;;;;;;;;;;;;;4988748;28;19968;-54
2023/12/31 07:55:55;;;;;;;;;;;;;;;;;;4987296;28;19922;-54
2023/12/31 07:58:24;;;;;;;;;;;;;;;;;;4981952;28;19999;-54
2023/12/31 08:00:50;;;;;;;;;;;;;;;;;;4978092;28;20159;-51
2023/12/31 08:03:16;;;;;;;;;;;;;;;;;;4984455;28;20115;-52
2023/12/31 08:05:42;;;;;;;;;;;;;;;;;;4977031;28;19926;-51
2023/12/31 08:08:11;;;;;;;;;;;;;;;;;;4974832;28;20364;-51
2023/12/31 08:10:40;;;;;;;;;;;;;;;;;;4945653;28;19937;-51
2023/12/31 08:13:06;;;;;;;;;;;;;;;;;;4967544;28;19921;-52
2023/12/31 08:15:32;;;;;;;;;;;;;;;;;;4961079;28;19951;-51
2023/12/31 08:17:58;;;;;;;;;;;;;;;;;;4968721;28;19920;-51
2023/12/31 08:20:23;;;;;;;;;;;;;;;;;;4965765;28;19914;-50
2023/12/31 08:22:52;;;;;;;;;;;;;;;;;;4970730;28;19921;-50
2023/12/31 08:25:19;;;;;;;;;;;;;;;;;;4965849;28;20297;-51
2023/12/31 08:27:44;;;;;;;;;;;;;;;;;;4958328;28;19913;-50
2023/12/31 08:30:10;;;;;;;;;;;;;;;;;;4964522;28;19914;-51
2023/12/31 08:35:21;;;;;;;;;;;;;;;;;;4985266;28;19937;-51
2023/12/31 08:37:48;;;;;;;;;;;;;;;;;;4970560;28;19925;-51
2023/12/31 08:40:14;;;;;;;;;;;;;;;;;;4966490;28;19928;-51
2023/12/31 08:42:40;;;;;;;;;;;;;;;;;;4973773;28;20694;-50
2023/12/31 08:45:08;;;;;;;;;;;;;;;;;;4940338;28;20051;-51
2023/12/31 08:47:33;;;;;;;;;;;;;;;;;;4962146;28;19929;-50
2023/12/31 08:50:07;;;;;;;;;;;;;;;;;;4962355;28;23341;-51
2023/12/31 08:52:33;;;;;;;;;;;;;;;;;;4963452;28;19913;-50
2023/12/31 08:54:59;;;;;;;;;;;;;;;;;;4936753;28;19920;-51
2023/12/31 08:57:25;;;;;;;;;;;;;;;;;;4967572;28;19922;-51
2023/12/31 08:59:51;;;;;;;;;;;;;;;;;;4966752;28;20313;-51
2023/12/31 09:02:16;;;;;;;;;;;;;;;;;;4963650;28;19927;-50
2023/12/31 09:04:42;;;;;;;;;;;;;;;;;;4963721;28;20071;-50
2023/12/31 09:07:08;;;;;;;;;;;;;;;;;;4967996;28;19929;-50
2023/12/31 09:09:34;;;;;;;;;;;;;;;;;;4968154;28;20664;-50
2023/12/31 09:12:00;;;;;;;;;;;;;;;;;;4977902;28;19944;-51
2023/12/31 09:14:26;;;;;;;;;;;;;;;;;;4976817;28;19922;-50
2023/12/31 09:16:52;;;;;;;;;;;;;;;;;;4973100;28;19922;-50
2023/12/31 09:19:18;;;;;;;;;;;;;;;;;;4979777;28;19914;-50
2023/12/31 09:21:44;;;;;;;;;;;;;;;;;;4976782;28;20296;-51
2023/12/31 09:24:09;;;;;;;;;;;;;;;;;;4977764;28;19983;-51
2023/12/31 09:26:35;;;;;;;;;;;;;;;;;;4967033;28;20029;-51
2023/12/31 09:29:01;;;;;;;;;;;;;;;;;;4972165;28;19914;-51
2023/12/31 09:31:27;;;;;;;;;;;;;;;;;;4976251;28;19914;-52
2023/12/31 09:33:53;;;;;;;;;;;;;;;;;;4969482;28;19948;-51
2023/12/31 09:36:19;;;;;;;;;;;;;;;;;;4980040;28;19917;-51
2023/12/31 09:38:45;;;;;;;;;;;;;;;;;;4973437;28;19992;-51
2023/12/31 09:41:11;;;;;;;;;;;;;;;;;;4972656;28;20577;-52
2023/12/31 09:43:36;;;;;;;;;;;;;;;;;;4974020;28;20036;-52
2023/12/31 09:46:02;;;;;;;;;;;;;;;;;;4972954;28;19952;-52
2023/12/31 09:48:28;;;;;;;;;;;;;;;;;;4969373;28;19937;-52
2023/12/31 09:50:54;;;;;;;;;;;;;;;;;;4972606;28;20305;-52
2023/12/31 09:53:20;;;;;;;;;;;;;;;;;;4975906;28;19921;-52
2023/12/31 09:55:46;;;;;;;;;;;;;;;;;;4973172;28;19920;-52
2023/12/31 09:58:12;;;;;;;;;;;;;;;;;;4971884;28;20190;-51
2023/12/31 10:00:38;;;;;;;;;;;;;;;;;;4964137;28;19976;-52
2023/12/31 10:03:04;;;;;;;;;;;;;;;;;;4975109;28;20377;-52
2023/12/31 10:05:30;;;;;;;;;;;;;;;;;;4972359;28;20616;-52
2023/12/31 10:07:56;;;;;;;;;;;;;;;;;;4975029;28;21247;-54
2023/12/31 10:10:22;;;;;;;;;;;;;;;;;;4955228;28;19914;-53
2023/12/31 10:12:48;;;;;;;;;;;;;;;;;;4970695;28;20356;-52
2023/12/31 10:15:13;;;;;;;;;;;;;;;;;;4974369;28;19954;-53
2023/12/31 10:17:39;;;;;;;;;;;;;;;;;;4969982;28;19933;-52
2023/12/31 10:20:05;;;;;;;;;;;;;;;;;;4975012;28;20410;-52
2023/12/31 10:22:31;;;;;;;;;;;;;;;;;;4966808;28;19924;-53
2023/12/31 10:24:57;;;;;;;;;;;;;;;;;;4965490;28;19913;-53
2023/12/31 10:27:23;;;;;;;;;;;;;;;;;;4971803;28;19918;-54
2023/12/31 10:29:49;;;;;;;;;;;;;;;;;;4968861;28;19917;-53
2023/12/31 10:32:15;;;;;;;;;;;;;;;;;;4958507;28;19914;-53
2023/12/31 10:34:41;;;;;;;;;;;;;;;;;;4965532;28;19922;-54
2023/12/31 10:37:07;;;;;;;;;;;;;;;;;;4966845;28;19991;-53
2023/12/31 10:39:33;;;;;;;;;;;;;;;;;;4972835;28;19921;-54
2023/12/31 10:41:59;;;;;;;;;;;;;;;;;;4968361;28;19920;-53
2023/12/31 10:44:28;;;;;;;;;;;;;;;;;;4979594;28;20099;-53
2023/12/31 10:46:54;;;;;;;;;;;;;;;;;;4977130;28;20483;-53
2023/12/31 10:49:20;;;;;;;;;;;;;;;;;;4971201;28;19917;-53
2023/12/31 10:51:46;;;;;;;;;;;;;;;;;;4971872;28;19923;-53
2023/12/31 10:54:12;;;;;;;;;;;;;;;;;;4986974;28;19909;-53
2023/12/31 10:56:38;;;;;;;;;;;;;;;;;;4985822;28;19971;-53
2023/12/31 10:59:05;;;;;;;;;;;;;;;;;;4983645;28;19932;-54
2023/12/31 11:01:31;;;;;;;;;;;;;;;;;;4985777;28;19962;-53
2023/12/31 11:03:57;;;;;;;;;;;;;;;;;;4984241;28;19984;-53
2023/12/31 11:06:22;;;;;;;;;;;;;;;;;;4978030;28;19913;-53
2023/12/31 11:08:48;;;;;;;;;;;;;;;;;;4973300;28;20373;-53
2023/12/31 11:11:14;;;;;;;;;;;;;;;;;;4960590;28;20741;-53
2023/12/31 11:13:40;;;;;;;;;;;;;;;;;;4973716;28;19925;-53
2023/12/31 11:16:06;;;;;;;;;;;;;;;;;;4974788;28;19924;-53
2023/12/31 11:18:32;;;;;;;;;;;;;;;;;;4959669;28;19918;-53
2023/12/31 11:20:58;;;;;;;;;;;;;;;;;;4967165;28;19983;-53
2023/12/31 11:23:25;;;;;;;;;;;;;;;;;;4971120;28;20416;-53
2023/12/31 11:25:51;;;;;;;;;;;;;;;;;;4950517;28;20718;-54
2023/12/31 11:28:17;;;;;;;;;;;;;;;;;;4967430;28;20124;-53
2023/12/31 11:30:43;;;;;;;;;;;;;;;;;;4959386;28;19913;-53
2023/12/31 11:33:09;;;;;;;;;;;;;;;;;;4967313;28;19910;-53
2023/12/31 11:35:35;;;;;;;;;;;;;;;;;;4973041;28;19914;-53
2023/12/31 11:38:01;;;;;;;;;;;;;;;;;;4977110;28;19952;-53
2023/12/31 11:40:26;;;;;;;;;;;;;;;;;;4972388;28;19926;-52
2023/12/31 11:42:52;;;;;;;;;;;;;;;;;;4979591;28;19910;-53
2023/12/31 11:45:18;;;;;;;;;;;;;;;;;;4979498;28;20323;-53
2023/12/31 11:47:45;;;;;;;;;;;;;;;;;;4979572;28;19914;-52
2023/12/31 11:50:11;;;;;;;;;;;;;;;;;;4984151;28;19922;-53
2023/12/31 11:52:37;;;;;;;;;;;;;;;;;;4980315;28;19914;-53
2023/12/31 11:55:03;;;;;;;;;;;;;;;;;;4975834;28;19924;-53
2023/12/31 11:57:29;;;;;;;;;;;;;;;;;;4958913;28;20793;-52
2023/12/31 11:59:54;;;;;;;;;;;;;;;;;;4968558;28;19910;-52
2023/12/31 12:02:20;;;;;;;;;;;;;;;;;;4972551;28;19928;-53
2023/12/31 12:04:46;;;;;;;;;;;;;;;;;;4973458;28;19925;-53
2023/12/31 12:07:12;;;;;;;;;;;;;;;;;;4969950;28;20288;-52
2023/12/31 12:09:38;;;;;;;;;;;;;;;;;;4966894;28;19914;-53
2023/12/31 12:12:04;;;;;;;;;;;;;;;;;;4971152;28;19909;-53
2023/12/31 12:14:29;;;;;;;;;;;;;;;;;;4975718;28;19921;-53
2023/12/31 12:16:55;;;;;;;;;;;;;;;;;;4966773;28;19921;-52
2023/12/31 12:19:21;;;;;;;;;;;;;;;;;;4972186;28;21093;-53
2023/12/31 12:21:48;;;;;;;;;;;;;;;;;;4979668;28;20331;-53
2023/12/31 12:24:14;;;;;;;;;;;;;;;;;;4976671;28;20169;-52
2023/12/31 12:26:39;;;;;;;;;;;;;;;;;;4976099;28;20220;-53
2023/12/31 12:29:06;;;;;;;;;;;;;;;;;;4970568;28;19968;-52
2023/12/31 12:31:31;;;;;;;;;;;;;;;;;;4976196;28;19917;-53
2023/12/31 12:33:57;;;;;;;;;;;;;;;;;;4962846;28;19921;-53
2023/12/31 12:36:23;;;;;;;;;;;;;;;;;;4976333;28;19941;-52
2023/12/31 12:38:49;;;;;;;;;;;;;;;;;;4972986;28;20461;-53
2023/12/31 12:41:15;;;;;;;;;;;;;;;;;;4965889;28;20012;-52
2023/12/31 12:43:41;;;;;;;;;;;;;;;;;;4965572;28;20282;-53
2023/12/31 12:46:10;;;;;;;;;;;;;;;;;;4967308;28;20218;-53
2023/12/31 12:48:36;;;;;;;;;;;;;;;;;;4972051;28;19909;-53
2023/12/31 12:51:02;;;;;;;;;;;;;;;;;;4975946;28;20045;-53
2023/12/31 12:53:28;;;;;;;;;;;;;;;;;;4974166;28;19913;-53
2023/12/31 12:55:53;;;;;;;;;;;;;;;;;;4980439;28;20411;-53
2023/12/31 12:58:19;;;;;;;;;;;;;;;;;;4969389;28;20034;-52
2023/12/31 13:00:45;;;;;;;;;;;;;;;;;;4969135;28;20993;-53
2023/12/31 13:03:11;;;;;;;;;;;;;;;;;;4984955;28;19913;-53
2023/12/31 13:05:37;;;;;;;;;;;;;;;;;;4989070;28;20357;-53
2023/12/31 13:08:03;;;;;;;;;;;;;;;;;;4977983;28;19927;-53
2023/12/31 13:10:29;;;;;;;;;;;;;;;;;;4982716;28;19940;-54
2023/12/31 13:12:55;;;;;;;;;;;;;;;;;;4982061;28;19922;-53
2023/12/31 13:15:21;;;;;;;;;;;;;;;;;;4974707;28;20069;-53
2023/12/31 13:17:47;;;;;;;;;;;;;;;;;;4973726;28;19925;-53
2023/12/31 13:20:13;;;;;;;;;;;;;;;;;;4981307;28;19925;-53
2023/12/31 13:22:39;;;;;;;;;;;;;;;;;;4987633;28;19968;-53
2023/12/31 13:25:05;;;;;;;;;;;;;;;;;;4993879;28;19920;-53
2023/12/31 13:27:31;;;;;;;;;;;;;;;;;;4998087;28;19910;-54
2023/12/31 13:29:56;;;;;;;;;;;;;;;;;;4988796;28;19980;-54
2023/12/31 13:32:22;;;;;;;;;;;;;;;;;;4990055;28;20369;-53
2023/12/31 13:34:48;;;;;;;;;;;;;;;;;;4988539;28;19924;-53
2023/12/31 13:37:14;;;;;;;;;;;;;;;;;;4991105;28;20356;-53
2023/12/31 13:39:40;;;;;;;;;;;;;;;;;;4983942;28;19909;-53
2023/12/31 13:42:06;;;;;;;;;;;;;;;;;;4982304;28;19913;-53
2023/12/31 13:44:32;;;;;;;;;;;;;;;;;;4991094;28;19957;-54
2023/12/31 13:46:57;;;;;;;;;;;;;;;;;;4985161;28;19917;-54
2023/12/31 13:49:25;;;;;;;;;;;;;;;;;;4979155;28;20438;-53
2023/12/31 13:51:51;;;;;;;;;;;;;;;;;;4987505;28;20292;-53
2023/12/31 13:54:17;;;;;;;;;;;;;;;;;;4982569;28;19916;-54
2023/12/31 13:56:43;;;;;;;;;;;;;;;;;;4983129;28;20332;-53
2023/12/31 13:59:09;;;;;;;;;;;;;;;;;;4971766;28;19925;-53
2023/12/31 14:01:35;;;;;;;;;;;;;;;;;;4973848;28;20352;-52
2023/12/31 14:04:06;;;;;;;;;;;;;;;;;;4978301;28;19921;-53
2023/12/31 14:06:32;;;;;;;;;;;;;;;;;;4974050;28;19918;-52
2023/12/31 14:08:58;;;;;;;;;;;;;;;;;;4975171;28;20400;-52
2023/12/31 14:11:24;;;;;;;;;;;;;;;;;;4975848;28;20369;-53
2023/12/31 14:13:50;;;;;;;;;;;;;;;;;;4975993;28;19921;-53
2023/12/31 14:16:16;;;;;;;;;;;;;;;;;;4978248;28;20379;-52
2023/12/31 14:18:41;;;;;;;;;;;;;;;;;;4972982;28;20369;-52
2023/12/31 14:21:07;;;;;;;;;;;;;;;;;;4980087;28;19918;-53
2023/12/31 14:23:33;;;;;;;;;;;;;;;;;;4980236;28;19925;-52
2023/12/31 14:25:59;;;;;;;;;;;;;;;;;;4971721;28;20429;-52
2023/12/31 14:28:25;;;;;;;;;;;;;;;;;;4984472;28;19977;-52
2023/12/31 14:30:51;;;;;;;;;;;;;;;;;;4981908;28;19996;-53
2023/12/31 14:33:17;;;;;;;;;;;;;;;;;;4989853;28;20029;-52
2023/12/31 14:35:43;;;;;;;;;;;;;;;;;;4991378;28;19926;-52
2023/12/31 14:38:09;;;;;;;;;;;;;;;;;;4976421;28;20348;-52
2023/12/31 14:40:34;;;;;;;;;;;;;;;;;;4986160;28;19921;-52
2023/12/31 14:43:00;;;;;;;;;;;;;;;;;;4983719;28;19969;-52
2023/12/31 14:45:26;;;;;;;;;;;;;;;;;;4975328;28;19917;-52
2023/12/31 14:47:52;;;;;;;;;;;;;;;;;;4981066;28;19913;-53
2023/12/31 14:50:18;;;;;;;;;;;;;;;;;;4973669;28;20546;-52
2023/12/31 14:52:44;;;;;;;;;;;;;;;;;;4988440;28;25054;-52
2023/12/31 14:55:10;;;;;;;;;;;;;;;;;;4981437;28;20035;-53
2023/12/31 14:57:37;;;;;;;;;;;;;;;;;;4983627;28;19960;-53
2023/12/31 15:00:04;;;;;;;;;;;;;;;;;;4973180;28;19913;-51
2023/12/31 15:02:30;;;;;;;;;;;;;;;;;;4975756;28;19961;-51
2023/12/31 15:04:56;;;;;;;;;;;;;;;;;;4978069;28;20309;-51
2023/12/31 15:07:22;;;;;;;;;;;;;;;;;;4980811;28;19968;-52
2023/12/31 15:09:48;;;;;;;;;;;;;;;;;;4973803;28;19921;-52
2023/12/31 15:12:14;;;;;;;;;;;;;;;;;;4978711;28;19913;-52
2023/12/31 15:14:40;;;;;;;;;;;;;;;;;;4984270;28;19914;-52
2023/12/31 15:17:05;;;;;;;;;;;;;;;;;;4983709;28;20071;-52
2023/12/31 15:19:31;;;;;;;;;;;;;;;;;;4970515;28;19920;-52
2023/12/31 15:21:57;;;;;;;;;;;;;;;;;;4978042;28;19928;-52
2023/12/31 15:24:23;;;;;;;;;;;;;;;;;;4988688;28;20585;-52
2023/12/31 15:26:49;;;;;;;;;;;;;;;;;;4985879;28;19918;-52
2023/12/31 15:29:15;;;;;;;;;;;;;;;;;;4997040;28;19918;-52
2023/12/31 15:31:42;;;;;;;;;;;;;;;;;;4990809;28;19924;-52
2023/12/31 15:34:08;;;;;;;;;;;;;;;;;;4993734;28;19963;-52
2023/12/31 15:36:34;;;;;;;;;;;;;;;;;;4991554;28;20368;-52
2023/12/31 15:39:00;;;;;;;;;;;;;;;;;;5000692;28;20351;-54
2023/12/31 15:41:27;;;;;;;;;;;;;;;;;;4991763;28;19932;-52
2023/12/31 15:43:53;;;;;;;;;;;;;;;;;;4979194;28;19920;-52
2023/12/31 15:46:19;;;;;;;;;;;;;;;;;;4980130;28;19918;-52
2023/12/31 15:48:47;;;;;;;;;;;;;;;;;;4982504;28;19909;-52
2023/12/31 15:51:13;;;;;;;;;;;;;;;;;;4982297;28;19918;-52
2023/12/31 15:53:38;;;;;;;;;;;;;;;;;;4989949;28;19925;-51
2023/12/31 15:56:05;;;;;;;;;;;;;;;;;;4972052;28;20003;-51
2023/12/31 15:58:30;;;;;;;;;;;;;;;;;;4983261;28;19991;-51
2023/12/31 16:00:56;;;;;;;;;;;;;;;;;;4986073;28;19926;-51
2023/12/31 16:03:22;;;;;;;;;;;;;;;;;;4979108;28;20342;-51
2023/12/31 16:05:48;;;;;;;;;;;;;;;;;;4981046;28;20263;-51
2023/12/31 16:08:14;;;;;;;;;;;;;;;;;;4990305;28;19960;-51
2023/12/31 16:10:40;;;;;;;;;;;;;;;;;;4983953;28;19925;-51
2023/12/31 16:13:06;;;;;;;;;;;;;;;;;;4990299;28;19944;-52
2023/12/31 16:15:32;;;;;;;;;;;;;;;;;;4959189;28;19956;-51
2023/12/31 16:17:58;;;;;;;;;;;;;;;;;;4972596;28;19920;-51
2023/12/31 16:20:23;;;;;;;;;;;;;;;;;;4978652;28;19922;-51
2023/12/31 16:22:49;;;;;;;;;;;;;;;;;;4977829;28;19922;-51
2023/12/31 16:25:16;;;;;;;;;;;;;;;;;;4968788;28;19953;-51
2023/12/31 16:27:42;;;;;;;;;;;;;;;;;;4971425;28;19909;-51
2023/12/31 16:30:07;;;;;;;;;;;;;;;;;;4968556;28;20016;-51
2023/12/31 16:32:33;;;;;;;;;;;;;;;;;;4974001;28;19937;-51
2023/12/31 16:34:59;;;;;;;;;;;;;;;;;;4971179;28;20269;-51
2023/12/31 16:37:26;;;;;;;;;;;;;;;;;;4979949;28;20012;-51
2023/12/31 16:39:52;;;;;;;;;;;;;;;;;;4978471;28;19945;-51